Data for 04/11/2013

Time Sea-Level Adjusted Pressure Absolute Pressure Temperature Relative Humidity Dew Point   
(mb) (inHg) (mb) (inHg) (C) (F) (%) (C) (F)
00:05 1013 29.91 842 24.86 5.2 41.4 73 0.8 33.4
00:10 1013 29.91 842 24.86 5 41 73 0.6 33.1
00:15 1013 29.91 842 24.86 4.9 40.9 72 0.3 32.6
00:20 1013 29.91 842 24.86 5 41.1 71 0.3 32.5
00:25 1013 29.91 842 24.86 5.1 41.3 71 0.4 32.6
00:30 1013 29.91 842 24.86 5.2 41.4 71 0.4 32.7
00:35 1013 29.91 842 24.86 5.3 41.5 70 0.3 32.5
00:40 1013 29.91 842 24.86 5.3 41.5 70 0.2 32.4
00:45 1013 29.91 842 24.86 5.1 41.2 72 0.4 32.8
00:50 1013 29.91 842 24.86 5 41 72 0.3 32.6
00:55 1013 29.91 842 24.86 5 40.9 71 0.2 32.4
01:00 1013 29.91 842 24.86 5 40.9 71 0.2 32.4
01:05 1013 29.91 842 24.86 4.9 40.9 71 0.2 32.4
01:10 1013 29.91 843 24.89 4.9 40.8 72 0.3 32.5
01:15 1013 29.91 843 24.89 5 40.9 71 0.1 32.2
01:20 1013 29.91 843 24.89 5 41 70 0.1 32.1
01:25 1013 29.91 843 24.89 4.9 40.9 71 0.2 32.3
01:30 1013 29.91 843 24.89 4.8 40.7 72 0.2 32.4
01:35 1013 29.91 843 24.89 4.7 40.5 73 0.2 32.4
01:40 1013 29.91 843 24.89 4.6 40.3 74 0.4 32.6
01:45 1013 29.91 843 24.89 4.5 40.1 74 0.3 32.5
01:50 1013 29.91 843 24.89 4.4 40 75 0.4 32.7
01:55 1013 29.91 843 24.89 4.3 39.7 75 0.3 32.5
02:00 1013 29.91 843 24.89 4.2 39.6 76 0.4 32.6
02:05 1013 29.91 842 24.86 4.1 39.5 78 0.6 33.1
02:10 1013 29.91 842 24.86 4.1 39.4 76 0.4 32.6
02:15 1013 29.91 843 24.89 4 39.3 77 0.4 32.6
02:20 1013 29.91 843 24.89 3.9 39 77 0.3 32.6
02:25 1013 29.91 843 24.89 3.9 38.9 77 0.2 32.3
02:30 1013 29.91 843 24.89 3.9 39 77 0.2 32.3
02:35 1013 29.91 842 24.86 3.9 38.9 78 0.3 32.6
02:40 1013 29.91 842 24.86 3.7 38.7 78 0.3 32.6
02:45 1013 29.91 842 24.86 3.5 38.3 80 0.4 32.6
02:50 1013 29.91 843 24.89 3.2 37.8 81 0.3 32.6
02:55 1013 29.91 843 24.89 3.1 37.6 82 0.3 32.6
03:00 1013 29.91 843 24.89 3.2 37.7 81 0.3 32.5
03:05 1013 29.91 843 24.89 3.3 38 79 0.1 32.1
03:10 1013 29.91 843 24.89 3.5 38.4 77 -0.1 31.9
03:15 1013 29.91 843 24.89 3.8 38.9 75 -0.2 31.6
03:20 1013 29.91 843 24.89 3.9 39 75 -0.2 31.7
03:25 1013 29.91 843 24.89 3.8 38.9 74 -0.4 31.2
03:30 1013 29.91 843 24.89 4 39.2 71 -0.8 30.5
03:35 1013 29.91 843 24.89 4.1 39.4 70 -0.9 30.5
03:40 1013 29.91 843 24.89 4.3 39.7 69 -1 30.2
03:45 1014 29.94 843 24.89 4.3 39.8 68 -1.1 30
03:50 1014 29.94 843 24.89 4.4 40 66 -1.4 29.6
03:55 1014 29.94 843 24.89 4.5 40 68 -1 30.2
04:00 1014 29.94 843 24.89 4.3 39.7 68 -1.2 29.9
04:05 1014 29.94 843 24.89 4.3 39.8 67 -1.2 29.8
04:10 1014 29.94 843 24.89 4.4 39.9 65 -1.5 29.3
04:15 1014 29.94 843 24.89 4.5 40.2 65 -1.5 29.4
04:20 1014 29.94 843 24.89 4.5 40.1 66 -1.3 29.7
04:25 1014 29.94 843 24.89 4.4 39.9 66 -1.4 29.4
04:30 1014 29.94 843 24.89 4.3 39.7 66 -1.5 29.4
04:35 1014 29.94 843 24.89 4.3 39.7 65 -1.8 28.8
04:40 1014 29.94 843 24.89 4.3 39.8 66 -1.4 29.4
04:45 1014 29.94 843 24.89 4.2 39.5 67 -1.4 29.5
04:50 1014 29.94 843 24.89 4.1 39.4 67 -1.4 29.4
04:55 1014 29.94 843 24.89 4 39.3 68 -1.4 29.5
05:00 1014 29.94 843 24.89 4 39.3 67 -1.5 29.3
05:05 1014 29.94 843 24.89 4 39.3 67 -1.5 29.3
05:10 1014 29.94 843 24.89 4 39.2 68 -1.4 29.5
05:15 1014 29.94 843 24.89 3.9 39.1 67 -1.5 29.2
05:20 1014 29.94 843 24.89 3.9 39.1 67 -1.6 29.1
05:25 1014 29.94 843 24.89 3.9 39.1 66 -1.8 28.8
05:30 1014 29.94 843 24.89 4 39.2 65 -2 28.4
05:35 1014 29.94 844 24.92 4 39.2 66 -1.9 28.6
05:40 1014 29.94 844 24.92 3.9 39 67 -1.7 29
05:45 1014 29.94 844 24.92 3.8 38.9 66 -2 28.5
05:50 1014 29.94 844 24.92 3.9 39 65 -2.2 28.1
05:55 1015 29.97 844 24.92 3.9 39 65 -2.2 28.1
06:00 1015 29.97 844 24.92 3.8 38.9 65 -2.2 28
06:05 1015 29.97 844 24.92 3.8 38.8 65 -2.3 27.9
06:10 1015 29.97 844 24.92 3.7 38.6 65 -2.3 27.8
06:15 1015 29.97 844 24.92 3.6 38.5 65 -2.4 27.6
06:20 1015 29.97 844 24.92 3.5 38.4 65 -2.4 27.7
06:25 1015 29.97 844 24.92 3.5 38.2 66 -2.2 28
06:30 1015 29.97 844 24.92 3.4 38.1 66 -2.4 27.7
06:35 1015 29.97 844 24.92 3.4 38.1 66 -2.3 27.8
06:40 1015 29.97 844 24.92 3.4 38.1 66 -2.3 27.9
06:45 1015 29.97 845 24.95 3.5 38.4 65 -2.3 27.8
06:50 1015 29.97 845 24.95 3.8 38.8 60 -3.3 26
06:55 1015 29.97 845 24.95 4.1 39.4 59 -3.3 26
07:00 1015 29.97 845 24.95 4.1 39.5 59 -3.2 26.2
07:05 1016 30 845 24.95 4.1 39.4 58 -3.5 25.7
07:10 1016 30 845 24.95 4.1 39.3 57 -3.6 25.5
07:15 1016 30 845 24.95 4.4 40 56 -3.5 25.7
07:20 1016 30 845 24.95 4.5 40.1 57 -3.3 26.1
07:25 1016 30 845 24.95 4.6 40.3 55 -3.6 25.6
07:30 1016 30 845 24.95 4.2 39.5 57 -3.5 25.6
07:35 1016 30 845 24.95 4.2 39.5 55 -4 24.8
07:40 1016 30 845 24.95 4.1 39.4 57 -3.7 25.3
07:45 1016 30 845 24.95 4.3 39.8 57 -3.5 25.6
07:50 1016 30 845 24.95 4.5 40.1 55 -3.7 25.3
07:55 1016 30 845 24.95 4.5 40.1 55 -3.7 25.4
08:00 1016 30 845 24.95 4.6 40.3 56 -3.5 25.7
08:05 1016 30 845 24.95 4.7 40.5 55 -3.4 25.8
08:10 1016 30 845 24.95 4.9 40.8 56 -3.2 26.3
08:15 1016 30 845 24.95 5.1 41.2 53 -3.6 25.5
08:20 1016 30 845 24.95 5.3 41.5 53 -3.6 25.5
08:25 1016 30 845 24.95 5.1 41.1 54 -3.5 25.8
08:30 1016 30 845 24.95 5.3 41.5 52 -3.6 25.5
08:35 1016 30 845 24.95 5.8 42.4 50 -3.7 25.3
08:40 1016 30 845 24.95 5.9 42.6 50 -3.6 25.5
08:45 1016 30 845 24.95 6 42.7 50 -3.6 25.6
08:50 1016 30 845 24.95 6.3 43.3 47 -4.2 24.5
08:55 1016 30 845 24.95 6.7 44.1 45 -4.4 24.1
09:00 1016 30 845 24.95 6.9 44.5 45 -4.1 24.7
09:05 1016 30 845 24.95 7.2 45 44 -4.3 24.3
09:10 1016 30 845 24.95 7.3 45.1 41 -5 23
09:15 1016 30 845 24.95 6.8 44.3 41 -5.4 22.3
09:20 1016 30 845 24.95 6.6 43.9 41 -5.6 21.8
09:25 1016 30 845 24.95 7.2 44.9 40 -5.6 21.9
09:30 1016 30 845 24.95 7.8 46 39 -5.4 22.3
09:35 1016 30 845 24.95 8.2 46.8 37 -5.7 21.7
09:40 1016 30 845 24.95 7.9 46.3 39 -5.3 22.4
09:45 1016 30 845 24.95 7.6 45.7 40 -5.2 22.6
09:50 1016 30 845 24.95 8.4 47.1 36 -5.7 21.8
09:55 1016 30 845 24.95 8.7 47.7 37 -5.1 22.8
10:00 1016 30 845 24.95 8.4 47.2 37 -5.4 22.2
10:05 1016 30 845 24.95 7.9 46.2 37 -5.9 21.4
10:10 1016 30 845 24.95 8.3 47 36 -6 21.2
10:15 1016 30 845 24.95 9 48.2 36 -5.2 22.6
10:20 1016 30 845 24.95 8.7 47.6 37 -5.1 22.9
10:25 1016 30 845 24.95 8.3 46.9 37 -5.5 22.1
10:30 1016 30 845 24.95 8.3 46.9 38 -5.1 22.9
10:35 1016 30 845 24.95 7.7 45.9 42 -4.5 23.9
10:40 1016 30 845 24.95 7.3 45.1 43 -4.5 23.8
10:45 1016 30 845 24.95 8.1 46.6 41 -4.5 23.9
10:50 1016 30 845 24.95 9.1 48.4 36 -5.2 22.6
10:55 1015 29.97 845 24.95 9.7 49.5 37 -4.2 24.4
11:00 1015 29.97 845 24.95 9.8 49.6 36 -4.4 24
11:05 1015 29.97 845 24.95 9.2 48.6 38 -4.4 24.2
11:10 1015 29.97 845 24.95 8.8 47.8 37 -5.1 22.8
11:15 1015 29.97 845 24.95 9.4 48.9 35 -5.4 22.2
11:20 1015 29.97 845 24.95 9.4 49 36 -4.8 23.3
11:25 1015 29.97 844 24.92 9 48.1 35 -5.5 22.1
11:30 1015 29.97 844 24.92 9.4 49 33 -6.2 20.9
11:35 1015 29.97 844 24.92 10.3 50.5 28 -7.3 18.9
11:40 1015 29.97 844 24.92 10.8 51.4 29 -6.6 20.1
11:45 1015 29.97 844 24.92 10.2 50.3 30 -6.4 20.5
11:50 1015 29.97 844 24.92 9.7 49.5 31 -6.5 20.3
11:55 1015 29.97 844 24.92 9.6 49.3 30 -7.1 19.2
12:00 1015 29.97 844 24.92 9.3 48.8 30 -7.1 19.1
12:05 1015 29.97 844 24.92 9.7 49.4 31 -6.7 20
12:10 1015 29.97 844 24.92 9.5 49.2 29 -7.7 18.1
12:15 1015 29.97 844 24.92 9.7 49.4 30 -7.1 19.2
12:20 1015 29.97 844 24.92 9.9 49.7 29 -7.2 19
12:25 1015 29.97 844 24.92 10.4 50.7 28 -7.3 18.9
12:30 1014 29.94 844 24.92 11.2 52.1 26 -7.4 18.7
12:35 1014 29.94 844 24.92 11.5 52.6 26 -7.1 19.2
12:40 1014 29.94 844 24.92 11.7 53 25 -7.5 18.4
12:45 1014 29.94 844 24.92 11.4 52.5 26 -7.6 18.2
12:50 1014 29.94 844 24.92 11.6 52.9 26 -7.4 18.8
12:55 1014 29.94 843 24.89 11.4 52.5 27 -7 19.5
13:00 1014 29.94 843 24.89 11.1 52 27 -7.2 19
13:05 1014 29.94 843 24.89 11.4 52.5 25 -7.8 17.9
13:10 1014 29.94 843 24.89 11.5 52.7 25 -8 17.7
13:15 1014 29.94 843 24.89 11.6 52.9 25 -7.5 18.4
13:20 1014 29.94 843 24.89 11.9 53.4 25 -7.5 18.5
13:25 1014 29.94 843 24.89 11.5 52.7 25 -7.8 18
13:30 1014 29.94 843 24.89 11.3 52.3 25 -8 17.5
13:35 1014 29.94 843 24.89 11.4 52.4 23 -9.1 15.7
13:40 1014 29.94 843 24.89 11.8 53.3 22 -9.1 15.7
13:45 1014 29.94 843 24.89 12 53.6 25 -7.5 18.6
13:50 1014 29.94 843 24.89 11.6 52.9 25 -7.6 18.3
13:55 1014 29.94 843 24.89 11.3 52.3 25 -7.9 17.7
14:00 1014 29.94 843 24.89 12 53.5 23 -8.8 16.2
14:05 1014 29.94 843 24.89 12.3 54.1 24 -7.9 17.7
14:10 1014 29.94 843 24.89 12.3 54.1 24 -7.9 17.7
14:15 1014 29.94 843 24.89 12.8 55.1 23 -7.9 17.8
14:20 1014 29.94 843 24.89 13 55.4 21 -8.7 16.4
14:25 1014 29.94 843 24.89 12.1 53.7 23 -8.6 16.5
14:30 1013 29.91 843 24.89 11.8 53.2 24 -8.3 17
14:35 1013 29.91 843 24.89 11.5 52.8 24 -8.3 17.1
14:40 1013 29.91 843 24.89 11.6 52.8 24 -8.6 16.6
14:45 1013 29.91 843 24.89 12 53.5 23 -8.4 16.9
14:50 1013 29.91 843 24.89 11.9 53.4 24 -8.2 17.2
14:55 1013 29.91 843 24.89 11.3 52.3 26 -7.6 18.2
15:00 1013 29.91 842 24.86 11.3 52.4 26 -7.5 18.5
15:05 1013 29.91 842 24.86 11.3 52.4 25 -7.7 18.1
15:10 1013 29.91 842 24.86 10.9 51.7 25 -8.3 17
15:15 1013 29.91 842 24.86 11 51.8 26 -8 17.7
15:20 1013 29.91 842 24.86 11.2 52.2 25 -7.8 17.9
15:25 1013 29.91 842 24.86 11.3 52.3 25 -8.3 17.1
15:30 1013 29.91 842 24.86 10.8 51.5 25 -8.2 17.2
15:35 1013 29.91 842 24.86 10.8 51.4 26 -8 17.6
15:40 1013 29.91 842 24.86 11 51.9 26 -7.9 17.8
15:45 1013 29.91 842 24.86 10.8 51.4 26 -8 17.6
15:50 1013 29.91 842 24.86 10.7 51.2 27 -7.8 18
15:55 1013 29.91 842 24.86 10.6 51 26 -8.3 17.1
16:00 1013 29.91 842 24.86 10.3 50.5 27 -8 17.5
16:05 1013 29.91 842 24.86 10.2 50.3 27 -8 17.6
16:10 1013 29.91 842 24.86 10 49.9 27 -8 17.6
16:15 1013 29.91 842 24.86 9.9 49.8 28 -7.9 17.9
16:20 1013 29.91 842 24.86 10 49.9 27 -8.2 17.2
16:25 1013 29.91 842 24.86 9.9 49.8 27 -8.4 17
16:30 1013 29.91 842 24.86 9.9 49.8 27 -8.3 17
16:35 1013 29.91 842 24.86 10 50 27 -8.2 17.2
16:40 1013 29.91 842 24.86 9.7 49.5 28 -8.1 17.4
16:45 1013 29.91 842 24.86 9.8 49.6 27 -8.5 16.7
16:50 1013 29.91 842 24.86 9.4 48.8 27 -8.6 16.5
16:55 1013 29.91 842 24.86 9.2 48.6 28 -8.4 17
17:00 1013 29.91 842 24.86 9.1 48.4 27 -8.8 16.2
17:05 1013 29.91 843 24.89 9 48.1 27 -8.9 15.9
17:10 1013 29.91 843 24.89 8.7 47.6 28 -8.8 16.2
17:15 1013 29.91 843 24.89 8.6 47.5 28 -9 15.7
17:20 1014 29.94 843 24.89 8.5 47.2 28 -8.9 15.9
17:25 1014 29.94 843 24.89 8.5 47.2 28 -9 15.9
17:30 1014 29.94 843 24.89 8.5 47.3 29 -8.7 16.4
17:35 1014 29.94 843 24.89 8.5 47.3 28 -9 15.9
17:40 1014 29.94 843 24.89 8.4 47.1 28 -9.1 15.6
17:45 1014 29.94 843 24.89 8.4 47.2 29 -8.8 16.2
17:50 1014 29.94 843 24.89 8.4 47 29 -8.9 16.1
17:55 1014 29.94 843 24.89 8.1 46.7 29 -8.8 16.1
18:00 1014 29.94 843 24.89 7.9 46.1 30 -8.8 16.2
18:05 1014 29.94 843 24.89 7.6 45.7 31 -8.7 16.4
18:10 1014 29.94 843 24.89 7.6 45.8 31 -8.6 16.6
18:15 1014 29.94 843 24.89 7.6 45.8 32 -8.2 17.3
18:20 1014 29.94 843 24.89 7.7 45.8 32 -8.1 17.3
18:25 1014 29.94 843 24.89 7.6 45.8 32 -8.1 17.4
18:30 1014 29.94 843 24.89 7.6 45.7 32 -7.9 17.8
18:35 1014 29.94 843 24.89 7.5 45.6 32 -8 17.7
18:40 1014 29.94 843 24.89 7.4 45.4 33 -7.7 18.1
18:45 1014 29.94 843 24.89 7.3 45.2 33 -7.9 17.8
18:50 1014 29.94 843 24.89 7.2 45 33 -7.9 17.8
18:55 1014 29.94 843 24.89 7 44.6 33 -8.4 16.9
19:00 1014 29.94 843 24.89 6.8 44.3 32 -8.6 16.6
19:05 1014 29.94 843 24.89 6.7 44.1 33 -8.5 16.7
19:10 1014 29.94 843 24.89 6.6 43.9 33 -8.5 16.6
19:15 1014 29.94 843 24.89 6.5 43.7 34 -8.3 17
19:20 1014 29.94 843 24.89 6.5 43.6 34 -8.4 17
19:25 1014 29.94 844 24.92 6.4 43.5 34 -8.4 16.8
19:30 1014 29.94 844 24.92 6.3 43.3 34 -8.5 16.7
19:35 1014 29.94 844 24.92 6.2 43.1 34 -8.4 16.8
19:40 1014 29.94 844 24.92 6.1 43 34 -8.5 16.8
19:45 1014 29.94 844 24.92 6.1 42.9 35 -8.2 17.2
19:50 1015 29.97 844 24.92 6 42.8 35 -8.2 17.2
19:55 1015 29.97 844 24.92 6 42.8 35 -8.2 17.2
20:00 1015 29.97 844 24.92 5.9 42.7 35 -8.2 17.2
20:05 1015 29.97 844 24.92 5.8 42.5 36 -8.2 17.3
20:10 1015 29.97 844 24.92 5.8 42.4 37 -8 17.7
20:15 1015 29.97 844 24.92 5.7 42.3 36 -8.1 17.5
20:20 1015 29.97 844 24.92 5.7 42.2 37 -7.8 17.9
20:25 1015 29.97 844 24.92 5.7 42.2 37 -8 17.7
20:30 1015 29.97 844 24.92 5.6 42.1 38 -7.7 18.2
20:35 1015 29.97 844 24.92 5.5 41.8 39 -7.5 18.5
20:40 1015 29.97 844 24.92 5.4 41.8 39 -7.5 18.5
20:45 1015 29.97 844 24.92 5.5 41.8 38 -7.7 18.2
20:50 1015 29.97 845 24.95 5.4 41.8 38 -7.6 18.3
20:55 1015 29.97 845 24.95 5.3 41.5 38 -7.8 18
21:00 1016 30 845 24.95 5.1 41.2 39 -7.8 18
21:05 1016 30 845 24.95 5 41 39 -7.8 17.9
21:10 1016 30 845 24.95 4.9 40.8 39 -7.8 18
21:15 1016 30 845 24.95 4.8 40.6 40 -7.7 18.2
21:20 1016 30 845 24.95 4.7 40.5 41 -7.6 18.4
21:25 1016 30 845 24.95 4.6 40.3 41 -7.5 18.5
21:30 1016 30 845 24.95 4.5 40.2 42 -7.3 18.8
21:35 1016 30 845 24.95 4.5 40.1 42 -7.2 19
21:40 1016 30 845 24.95 4.4 40 43 -7.1 19.3
21:45 1016 30 845 24.95 4.4 39.9 44 -6.8 19.7
21:50 1016 30 845 24.95 4.3 39.7 44 -7 19.3
21:55 1016 30 845 24.95 4.1 39.4 44 -7.2 19.1
22:00 1016 30 845 24.95 4 39.3 44 -7.1 19.3
22:05 1016 30 845 24.95 3.9 39 43 -7.7 18.2
22:10 1016 30 845 24.95 3.9 38.9 41 -8.2 17.3
22:15 1016 30 845 24.95 3.8 38.9 42 -8.1 17.4
22:20 1016 30 845 24.95 3.7 38.7 41 -8.3 17
22:25 1016 30 845 24.95 3.7 38.6 40 -8.6 16.5
22:30 1016 30 845 24.95 3.7 38.6 40 -8.7 16.4
22:35 1016 30 845 24.95 3.5 38.4 42 -8.2 17.2
22:40 1016 30 845 24.95 3.4 38.2 42 -8.2 17.3
22:45 1016 30 845 24.95 3.3 38 43 -8 17.6
22:50 1016 30 845 24.95 3.2 37.8 44 -7.9 17.7
22:55 1016 30 845 24.95 3.1 37.6 44 -7.9 17.8
23:00 1016 30 846 24.98 3 37.5 44 -8 17.6
23:05 1016 30 846 24.98 3 37.4 45 -7.9 17.7
23:10 1016 30 846 24.98 3 37.3 45 -7.8 17.9
23:15 1016 30 846 24.98 2.9 37.2 45 -8 17.6
23:20 1016 30 846 24.98 2.9 37.2 45 -8 17.6
23:25 1017 30.03 846 24.98 2.9 37.2 45 -8 17.7
23:30 1017 30.03 846 24.98 2.8 37 45 -8.1 17.4
23:35 1017 30.03 846 24.98 2.7 36.9 45 -8 17.5
23:40 1017 30.03 846 24.98 2.7 36.8 45 -8 17.6
23:45 1017 30.03 846 24.98 2.5 36.5 46 -7.9 17.8
23:50 1017 30.03 846 24.98 2.3 36.1 47 -7.8 18
23:55 1017 30.03 846 24.98 2 35.6 48 -7.8 18
24:00 1017 30.03 846 24.98 1.8 35.3 49 -7.8 17.9